Time;durP1;ratioP1;P1;durP2;ratioP2;P2;SDS_P1;SDS_P2;PMS_P1;PMS_P2;Temp;Humidity;BMP_temperature;BMP_pressure;BME280_temperature;BME280_humidity;BME280_pressure;Samples;Min_cycle;Max_cycle;Signal;HPM_P1;HPM_P2
2021/08/15 00:02:48;;;;;;;18.50;16.80;;;25.70;99.90;;;;;;6324598;28;20229;-64
2021/08/15 00:05:53;;;;;;;17.43;15.97;;;25.60;99.90;;;;;;6324862;28;20226;-64
2021/08/15 00:08:56;;;;;;;18.80;17.20;;;25.60;99.90;;;;;;6315235;28;20227;-63
2021/08/15 00:11:59;;;;;;;18.70;16.97;;;25.50;99.90;;;;;;6325131;28;20198;-63
2021/08/15 00:15:02;;;;;;;18.20;16.77;;;25.50;99.90;;;;;;6324436;28;20206;-64
2021/08/15 00:18:06;;;;;;;16.70;15.30;;;25.40;99.90;;;;;;6324770;28;20229;-64
2021/08/15 00:21:12;;;;;;;17.00;15.43;;;25.40;99.90;;;;;;6324191;28;20206;-64
2021/08/15 00:24:17;;;;;;;17.73;16.23;;;25.40;99.90;;;;;;6325041;28;20234;-64
2021/08/15 00:27:20;;;;;;;16.97;15.57;;;25.40;99.90;;;;;;6323764;28;20679;-62
2021/08/15 00:30:23;;;;;;;17.47;16.17;;;25.40;99.90;;;;;;6324423;28;20241;-62
2021/08/15 00:33:26;;;;;;;17.83;16.43;;;25.40;99.90;;;;;;6329763;28;20218;-63
2021/08/15 00:36:31;;;;;;;18.13;16.63;;;25.40;99.90;;;;;;6336689;28;20217;-63
2021/08/15 00:39:34;;;;;;;18.47;16.97;;;25.40;99.90;;;;;;6327160;28;20237;-63
2021/08/15 00:42:37;;;;;;;19.07;17.57;;;25.40;99.90;;;;;;6323913;28;20229;-63
2021/08/15 00:45:40;;;;;;;16.73;15.43;;;25.40;99.90;;;;;;6324470;28;20226;-63
2021/08/15 00:48:44;;;;;;;16.27;15.03;;;25.40;99.90;;;;;;6323711;28;20707;-63
2021/08/15 00:51:48;;;;;;;18.40;16.90;;;25.40;99.90;;;;;;6323973;28;20225;-63
2021/08/15 00:54:51;;;;;;;20.20;18.07;;;25.40;99.90;;;;;;6324123;28;20225;-63
2021/08/15 00:57:54;;;;;;;17.60;15.83;;;25.40;99.90;;;;;;6324181;28;20244;-63
2021/08/15 01:00:58;;;;;;;18.40;17.00;;;25.40;99.90;;;;;;6328649;28;20728;-65
2021/08/15 01:04:04;;;;;;;19.77;18.00;;;25.30;99.90;;;;;;6328505;28;20687;-63
2021/08/15 01:07:09;;;;;;;19.53;18.00;;;25.30;99.90;;;;;;6326749;28;20572;-63
2021/08/15 01:10:14;;;;;;;20.53;18.70;;;25.30;99.90;;;;;;6326866;28;20686;-63
2021/08/15 01:13:17;;;;;;;19.77;18.10;;;25.40;99.90;;;;;;6322885;28;20248;-63
2021/08/15 01:16:20;;;;;;;18.70;17.20;;;25.30;99.90;;;;;;6326888;28;20237;-63
2021/08/15 01:19:30;;;;;;;17.70;16.00;;;25.30;99.90;;;;;;6326699;28;20728;-63
2021/08/15 01:22:38;;;;;;;17.90;16.40;;;25.40;99.90;;;;;;6328343;28;20233;-62
2021/08/15 01:25:42;;;;;;;19.30;17.50;;;25.30;99.90;;;;;;6328705;28;20222;-63
2021/08/15 01:28:47;;;;;;;18.37;16.87;;;25.40;99.90;;;;;;6328696;28;20674;-62
2021/08/15 01:31:50;;;;;;;19.57;17.87;;;25.40;99.90;;;;;;6328593;28;20230;-63
2021/08/15 01:34:55;;;;;;;19.67;18.10;;;25.40;99.90;;;;;;6328736;28;20237;-62
2021/08/15 01:37:58;;;;;;;20.17;18.50;;;25.40;99.90;;;;;;6328129;28;20305;-64
2021/08/15 01:41:01;;;;;;;19.17;17.67;;;25.40;99.90;;;;;;6328370;28;20544;-64
2021/08/15 01:44:06;;;;;;;18.97;17.57;;;25.40;99.90;;;;;;6328290;28;20616;-64
2021/08/15 01:47:10;;;;;;;19.50;18.00;;;25.40;99.90;;;;;;6327907;28;20240;-64
2021/08/15 01:50:13;;;;;;;19.33;17.63;;;25.40;99.90;;;;;;6328026;28;20230;-64
2021/08/15 01:53:18;;;;;;;19.47;18.00;;;25.40;99.90;;;;;;6327967;28;20237;-63
2021/08/15 01:56:22;;;;;;;17.70;16.40;;;25.40;99.90;;;;;;6328116;28;20547;-63
2021/08/15 01:59:27;;;;;;;18.20;16.70;;;25.40;99.90;;;;;;6327479;28;20240;-64
2021/08/15 02:02:30;;;;;;;19.57;17.97;;;25.40;99.90;;;;;;6327964;28;20710;-64
2021/08/15 02:05:34;;;;;;;18.63;17.00;;;25.50;99.90;;;;;;6327666;28;20232;-64
2021/08/15 02:08:37;;;;;;;19.70;17.93;;;25.40;99.90;;;;;;6327192;28;20698;-64
2021/08/15 02:11:40;;;;;;;19.10;17.67;;;25.40;99.90;;;;;;6326985;28;20244;-64
2021/08/15 02:14:45;;;;;;;17.23;15.73;;;25.40;99.90;;;;;;6327416;28;20691;-64
2021/08/15 02:17:48;;;;;;;19.27;17.50;;;25.40;99.90;;;;;;6327844;28;20234;-64
2021/08/15 02:20:52;;;;;;;19.37;17.77;;;25.40;99.90;;;;;;6327036;28;20222;-64
2021/08/15 02:23:55;;;;;;;17.47;16.07;;;25.30;99.90;;;;;;6327096;28;20559;-64
2021/08/15 02:26:58;;;;;;;18.40;16.90;;;25.30;99.90;;;;;;6327167;28;20657;-63
2021/08/15 02:30:03;;;;;;;20.10;18.50;;;25.40;99.90;;;;;;6327036;28;20563;-64
2021/08/15 02:33:07;;;;;;;18.63;16.90;;;25.40;99.90;;;;;;6326751;28;20205;-63
2021/08/15 02:36:10;;;;;;;20.53;18.57;;;25.40;99.90;;;;;;6327142;28;20213;-63
2021/08/15 02:39:13;;;;;;;20.13;18.40;;;25.30;99.90;;;;;;6326749;28;20206;-64
2021/08/15 02:42:16;;;;;;;18.53;17.03;;;25.30;99.90;;;;;;6327133;28;20241;-64
2021/08/15 02:45:23;;;;;;;17.77;16.27;;;25.30;99.90;;;;;;6326730;28;20229;-64
2021/08/15 02:48:27;;;;;;;18.47;16.97;;;25.30;99.90;;;;;;6326724;28;20753;-64
2021/08/15 02:51:30;;;;;;;18.83;17.37;;;25.30;99.90;;;;;;6326215;28;20574;-64
2021/08/15 02:54:33;;;;;;;19.13;17.53;;;25.30;99.90;;;;;;6326762;28;20241;-64
2021/08/15 02:57:36;;;;;;;20.57;18.57;;;25.30;99.90;;;;;;6326105;28;20237;-64
2021/08/15 03:00:41;;;;;;;19.57;17.97;;;25.20;99.90;;;;;;6326050;28;20691;-64
2021/08/15 03:03:44;;;;;;;19.60;18.00;;;25.20;99.90;;;;;;6326180;28;20683;-64
2021/08/15 03:06:47;;;;;;;20.23;18.50;;;25.20;99.90;;;;;;6325928;28;20238;-64
2021/08/15 03:09:50;;;;;;;19.07;17.37;;;25.00;99.90;;;;;;6325966;28;20683;-64
2021/08/15 03:12:54;;;;;;;18.70;17.30;;;25.00;99.90;;;;;;6326011;28;20230;-64
2021/08/15 03:15:58;;;;;;;18.90;17.20;;;25.00;99.90;;;;;;6326300;28;20230;-64
2021/08/15 03:19:01;;;;;;;18.40;17.00;;;24.90;99.90;;;;;;6325766;28;20290;-64
2021/08/15 03:22:05;;;;;;;20.10;18.40;;;24.80;99.90;;;;;;6316059;28;20238;-64
2021/08/15 03:25:09;;;;;;;18.60;17.10;;;24.80;99.90;;;;;;6325566;28;20725;-64
2021/08/15 03:28:12;;;;;;;18.70;17.20;;;24.70;99.90;;;;;;6325863;28;20240;-64
2021/08/15 03:31:16;;;;;;;18.80;17.30;;;24.70;99.90;;;;;;6325556;28;20234;-64
2021/08/15 03:34:19;;;;;;;18.93;17.37;;;24.70;99.90;;;;;;6325468;28;20679;-63
2021/08/15 03:37:23;;;;;;;18.50;17.10;;;24.60;99.90;;;;;;6325355;28;20234;-64
2021/08/15 03:40:26;;;;;;;18.57;16.97;;;24.60;99.90;;;;;;6325516;28;20226;-64
2021/08/15 03:43:29;;;;;;;20.50;18.67;;;24.60;99.90;;;;;;6325645;28;20744;-63
2021/08/15 03:46:33;;;;;;;20.83;19.03;;;24.60;99.90;;;;;;6325112;28;20557;-64
2021/08/15 03:49:36;;;;;;;19.60;18.20;;;24.60;99.90;;;;;;6325253;28;20226;-64
2021/08/15 03:52:41;;;;;;;19.03;17.43;;;24.60;99.90;;;;;;6324668;28;20602;-64
2021/08/15 03:55:44;;;;;;;20.13;18.50;;;24.60;99.90;;;;;;6325092;28;20768;-64
2021/08/15 03:58:47;;;;;;;20.10;18.57;;;24.50;99.90;;;;;;6324699;28;20245;-64
2021/08/15 04:01:51;;;;;;;20.30;18.50;;;24.50;99.90;;;;;;6325163;28;20222;-64
2021/08/15 04:04:54;;;;;;;19.30;17.70;;;24.50;99.90;;;;;;6324973;28;20230;-64
2021/08/15 04:07:58;;;;;;;21.67;19.77;;;24.50;99.90;;;;;;6324781;28;20312;-64
2021/08/15 04:11:01;;;;;;;21.00;19.10;;;24.50;99.90;;;;;;6324689;28;20237;-64
2021/08/15 04:14:04;;;;;;;20.17;18.47;;;24.40;99.90;;;;;;6324659;28;20222;-64
2021/08/15 04:17:08;;;;;;;19.90;18.27;;;24.50;99.90;;;;;;6324441;28;20238;-64
2021/08/15 04:20:13;;;;;;;19.73;18.00;;;24.50;99.90;;;;;;6324485;28;20230;-64
2021/08/15 04:23:16;;;;;;;20.27;18.53;;;24.50;99.90;;;;;;6324412;28;20234;-63
2021/08/15 04:26:19;;;;;;;19.33;17.90;;;24.50;99.90;;;;;;6319920;28;20241;-63
2021/08/15 04:29:22;;;;;;;19.17;17.57;;;24.50;99.90;;;;;;6324641;28;20238;-64
2021/08/15 04:32:27;;;;;;;19.40;17.70;;;24.50;99.90;;;;;;6323939;28;20238;-64
2021/08/15 04:35:30;;;;;;;19.23;17.63;;;24.50;99.90;;;;;;6324451;28;20226;-64
2021/08/15 04:38:33;;;;;;;21.10;19.30;;;24.50;99.90;;;;;;6323711;28;20229;-64
2021/08/15 04:41:36;;;;;;;20.70;18.40;;;24.60;99.90;;;;;;6324543;28;20222;-63
2021/08/15 04:44:39;;;;;;;19.60;17.90;;;24.60;99.90;;;;;;6323949;28;20572;-64
2021/08/15 04:47:44;;;;;;;18.83;17.20;;;24.70;99.90;;;;;;6324425;28;20552;-64
2021/08/15 04:50:47;;;;;;;18.70;17.30;;;24.80;99.90;;;;;;6323681;28;20225;-64
2021/08/15 04:53:50;;;;;;;19.40;17.87;;;24.80;99.90;;;;;;6323998;28;20221;-64
2021/08/15 04:56:53;;;;;;;19.40;17.90;;;24.90;99.90;;;;;;6323780;28;20249;-64
2021/08/15 04:59:56;;;;;;;18.20;16.60;;;25.00;99.90;;;;;;6323871;28;20221;-64
2021/08/15 05:03:01;;;;;;;17.77;16.33;;;25.00;99.90;;;;;;6324101;28;20222;-63
2021/08/15 05:06:05;;;;;;;19.07;17.57;;;25.10;99.90;;;;;;6323627;28;20515;-63
2021/08/15 05:09:11;;;;;;;19.40;17.70;;;25.20;99.90;;;;;;6324085;28;20229;-63
2021/08/15 05:12:14;;;;;;;18.10;16.67;;;25.40;99.90;;;;;;6323428;28;20217;-63
2021/08/15 05:15:17;;;;;;;18.47;16.97;;;25.70;99.90;;;;;;6324018;28;20230;-63
2021/08/15 05:18:22;;;;;;;18.67;16.83;;;25.90;99.90;;;;;;6323376;28;20240;-63
2021/08/15 05:21:25;;;;;;;20.70;18.50;;;26.10;99.90;;;;;;6323846;28;20233;-63
2021/08/15 05:24:32;;;;;;;17.57;16.07;;;26.30;99.90;;;;;;6323323;28;20229;-66
2021/08/15 05:27:35;;;;;;;18.40;17.00;;;26.40;99.90;;;;;;6323821;28;20262;-63
2021/08/15 05:30:38;;;;;;;18.27;16.87;;;26.60;99.90;;;;;;6314362;28;20233;-63
2021/08/15 05:33:43;;;;;;;18.33;16.93;;;26.70;99.90;;;;;;6323939;28;20240;-63
2021/08/15 05:36:46;;;;;;;18.43;16.83;;;26.80;99.90;;;;;;6323240;28;20703;-64
2021/08/15 05:39:49;;;;;;;19.67;17.97;;;26.90;99.90;;;;;;6323462;28;20615;-64
2021/08/15 05:42:53;;;;;;;20.00;18.40;;;26.90;99.90;;;;;;6323465;28;20722;-64
2021/08/15 05:45:56;;;;;;;18.60;17.00;;;27.10;99.90;;;;;;6326296;28;20232;-64
2021/08/15 05:49:00;;;;;;;18.63;17.13;;;27.40;99.90;;;;;;6327925;28;20691;-64
2021/08/15 05:52:04;;;;;;;17.60;16.27;;;27.80;99.90;;;;;;6327820;28;20230;-64
2021/08/15 05:55:09;;;;;;;18.50;16.90;;;27.90;99.90;;;;;;6328004;28;20229;-64
2021/08/15 05:58:12;;;;;;;19.17;17.23;;;27.90;99.90;;;;;;6327361;28;20241;-64
2021/08/15 06:01:15;;;;;;;17.80;16.20;;;27.80;99.90;;;;;;6327733;28;20221;-64
2021/08/15 06:04:19;;;;;;;18.70;17.20;;;27.90;99.90;;;;;;6327092;28;20225;-65
2021/08/15 06:07:23;;;;;;;18.90;16.67;;;27.80;99.90;;;;;;6327345;28;20260;-64
2021/08/15 06:10:26;;;;;;;18.80;17.23;;;27.80;99.90;;;;;;6327609;28;20548;-64
2021/08/15 06:13:29;;;;;;;19.03;17.47;;;27.90;99.90;;;;;;6327354;28;20694;-63
2021/08/15 06:16:32;;;;;;;18.60;17.17;;;27.90;99.90;;;;;;6327428;28;20277;-63
2021/08/15 06:19:37;;;;;;;18.70;17.17;;;27.90;99.90;;;;;;6327202;28;20244;-64
2021/08/15 06:22:41;;;;;;;18.00;16.60;;;27.90;99.90;;;;;;6326502;28;20232;-64
2021/08/15 06:25:44;;;;;;;18.67;16.97;;;27.90;99.90;;;;;;6327061;28;20570;-64
2021/08/15 06:28:48;;;;;;;18.00;16.57;;;28.10;99.90;;;;;;6337877;28;20222;-64
2021/08/15 06:31:56;;;;;;;18.90;17.20;;;28.30;99.90;;;;;;6338188;28;20232;-63
2021/08/15 06:35:01;;;;;;;18.40;16.90;;;28.50;99.70;;;;;;6325583;28;20332;-63
2021/08/15 06:38:04;;;;;;;20.37;18.33;;;28.80;99.30;;;;;;6340099;28;20689;-63
2021/08/15 06:41:08;;;;;;;17.17;15.77;;;29.10;99.00;;;;;;6338017;28;20510;-64
2021/08/15 06:44:11;;;;;;;18.30;16.70;;;30.00;98.10;;;;;;6337345;28;20217;-64
2021/08/15 06:47:14;;;;;;;18.03;16.73;;;30.70;95.90;;;;;;6334890;28;20222;-64
2021/08/15 06:50:19;;;;;;;17.75;16.45;;;30.90;95.50;;;;;;6339241;28;20244;-64
2021/08/15 06:53:22;;;;;;;16.77;15.27;;;31.50;94.70;;;;;;6326660;28;20538;-64
2021/08/15 06:56:25;;;;;;;16.70;15.38;;;31.80;93.40;;;;;;6326266;28;20573;-64
2021/08/15 06:59:29;;;;;;;18.05;16.30;;;31.80;93.10;;;;;;6326534;28;20702;-64
2021/08/15 07:02:37;;;;;;;16.38;14.88;;;32.00;92.80;;;;;;6326400;28;20226;-65
2021/08/15 07:05:42;;;;;;;17.55;16.25;;;32.30;92.50;;;;;;6326226;28;20240;-64
2021/08/15 07:08:45;;;;;;;17.90;16.40;;;32.60;92.20;;;;;;6325847;28;20619;-65
2021/08/15 07:11:48;;;;;;;15.57;14.45;;;34.00;90.30;;;;;;6326506;28;20240;-64
2021/08/15 07:14:52;;;;;;;17.48;15.98;;;35.40;85.40;;;;;;6326064;28;20241;-65
2021/08/15 07:17:55;;;;;;;15.70;14.50;;;36.30;78.90;;;;;;6325544;28;20634;-65
2021/08/15 07:21:00;;;;;;;18.00;15.85;;;36.60;75.50;;;;;;6325886;28;20221;-63
2021/08/15 07:24:03;;;;;;;16.00;14.77;;;36.20;74.60;;;;;;6326020;28;20189;-64
2021/08/15 07:27:07;;;;;;;16.63;15.25;;;35.70;74.40;;;;;;6325982;28;20229;-65
2021/08/15 07:30:11;;;;;;;15.65;14.52;;;35.00;75.30;;;;;;6325590;28;20254;-65
2021/08/15 07:33:14;;;;;;;16.55;15.13;;;34.40;77.50;;;;;;6325788;28;20270;-65
2021/08/15 07:36:18;;;;;;;16.60;15.38;;;33.90;78.80;;;;;;6315911;28;20658;-64
2021/08/15 07:39:21;;;;;;;16.40;15.10;;;33.50;81.10;;;;;;6325631;28;20240;-64
2021/08/15 07:42:25;;;;;;;16.23;15.13;;;33.10;83.20;;;;;;6325350;28;20232;-64
2021/08/15 07:45:31;;;;;;;17.50;16.10;;;33.10;84.40;;;;;;6325716;28;20225;-64
2021/08/15 07:48:34;;;;;;;16.40;15.30;;;33.00;84.10;;;;;;6325229;28;20756;-65
2021/08/15 07:51:38;;;;;;;16.98;15.77;;;32.80;84.70;;;;;;6325127;28;20321;-65
2021/08/15 07:54:42;;;;;;;16.17;14.88;;;32.50;86.00;;;;;;6325251;28;20236;-65
2021/08/15 07:57:45;;;;;;;18.20;16.70;;;32.70;85.10;;;;;;6325070;28;20327;-65
2021/08/15 08:00:48;;;;;;;17.67;16.45;;;32.50;85.80;;;;;;6325274;28;20233;-65
2021/08/15 08:03:52;;;;;;;17.23;15.85;;;32.30;86.30;;;;;;6325038;28;20315;-65
2021/08/15 08:06:57;;;;;;;16.38;15.07;;;32.10;87.40;;;;;;6324742;28;20233;-65
2021/08/15 08:10:00;;;;;;;16.17;14.95;;;33.40;86.70;;;;;;6324396;28;20232;-66
2021/08/15 08:13:08;;;;;;;15.38;14.25;;;37.10;75.50;;;;;;6325047;28;20659;-65
2021/08/15 08:16:12;;;;;;;14.23;13.23;;;40.10;64.90;;;;;;6324334;28;20229;-66
2021/08/15 08:19:15;;;;;;;12.50;11.60;;;42.30;56.30;;;;;;6324748;28;20583;-65
2021/08/15 08:22:19;;;;;;;12.05;11.07;;;44.50;49.60;;;;;;6324210;28;20222;-65
2021/08/15 08:25:23;;;;;;;11.30;10.60;;;46.10;43.90;;;;;;6324902;28;20225;-66
2021/08/15 08:28:26;;;;;;;12.35;11.60;;;47.20;40.10;;;;;;6324237;28;20674;-66
2021/08/15 08:31:30;;;;;;;14.93;10.18;;;47.80;39.20;;;;;;6324290;28;20239;-65
2021/08/15 08:34:33;;;;;;;11.40;10.38;;;46.60;38.70;;;;;;6323888;28;20230;-65
2021/08/15 08:37:38;;;;;;;10.98;10.07;;;46.30;38.40;;;;;;6323840;28;20582;-65
2021/08/15 08:40:43;;;;;;;10.35;9.55;;;47.40;36.90;;;;;;6319996;28;20238;-66
2021/08/15 08:43:47;;;;;;;10.93;9.75;;;48.60;34.70;;;;;;6324258;28;20240;-66
2021/08/15 08:46:51;;;;;;;9.85;9.05;;;49.90;32.40;;;;;;6323917;28;20613;-65
2021/08/15 08:49:55;;;;;;;9.85;8.85;;;50.20;31.50;;;;;;6324104;28;20401;-65
2021/08/15 08:53:00;;;;;;;10.65;8.90;;;51.20;30.00;;;;;;6323606;28;20239;-65
2021/08/15 08:56:04;;;;;;;9.35;8.65;;;51.20;29.60;;;;;;6323399;28;20243;-65
2021/08/15 08:59:08;;;;;;;9.68;8.88;;;50.90;29.70;;;;;;6323480;28;20240;-65
2021/08/15 09:02:12;;;;;;;8.85;8.23;;;50.90;29.50;;;;;;6325602;28;20548;-65
2021/08/15 09:05:15;;;;;;;10.18;9.48;;;50.60;29.40;;;;;;6333837;28;20807;-65
2021/08/15 09:08:27;;;;;;;9.35;8.57;;;50.20;29.70;;;;;;6334360;28;20568;-65
2021/08/15 09:11:30;;;;;;;8.95;8.35;;;49.60;30.00;;;;;;6334331;27;20381;-65
2021/08/15 09:14:33;;;;;;;9.82;8.70;;;48.70;30.60;;;;;;6335736;28;20232;-67
2021/08/15 09:17:37;;;;;;;10.82;9.77;;;47.70;31.30;;;;;;6348281;28;20322;-68
2021/08/15 09:20:43;;;;;;;10.63;9.65;;;46.40;33.20;;;;;;6351058;28;20227;-69
2021/08/15 09:23:59;;;;;;;9.50;8.80;;;45.20;33.70;;;;;;6353926;28;20686;-68
2021/08/15 09:27:07;;;;;;;10.45;9.48;;;44.40;35.30;;;;;;6353483;28;20226;-68
2021/08/15 09:30:16;;;;;;;10.98;10.15;;;43.70;36.80;;;;;;6353830;28;20207;-68
2021/08/15 09:33:19;;;;;;;13.30;12.27;;;42.90;38.00;;;;;;6353698;28;20243;-68
2021/08/15 09:36:31;;;;;;;13.90;12.73;;;42.10;39.00;;;;;;6350384;28;20243;-70
2021/08/15 09:39:36;;;;;;;11.23;10.35;;;41.30;40.00;;;;;;6337556;28;20667;-67
2021/08/15 09:42:41;;;;;;;12.25;11.15;;;40.40;40.80;;;;;;6343244;28;20217;-68
2021/08/15 09:45:46;;;;;;;12.25;11.15;;;39.80;42.50;;;;;;6331628;28;20225;-68
2021/08/15 09:48:49;;;;;;;10.57;9.88;;;38.80;44.10;;;;;;6340727;28;20229;-68
2021/08/15 09:51:53;;;;;;;12.88;11.68;;;38.40;44.20;;;;;;6339413;28;20228;-68
2021/08/15 09:55:00;;;;;;;13.95;11.63;;;38.00;45.00;;;;;;6339987;28;20239;-67
2021/08/15 09:58:16;;;;;;;11.65;10.75;;;37.80;46.10;;;;;;6338475;28;21350;-68
2021/08/15 10:01:20;;;;;;;12.73;11.73;;;37.20;47.30;;;;;;6337652;28;20224;-68
2021/08/15 10:04:25;;;;;;;13.07;11.98;;;36.60;48.00;;;;;;6338549;28;20633;-67
2021/08/15 10:07:30;;;;;;;12.88;11.88;;;36.30;48.40;;;;;;6336843;28;20225;-64
2021/08/15 10:10:36;;;;;;;13.30;12.30;;;36.50;49.00;;;;;;6339629;28;20567;-63
2021/08/15 10:13:39;;;;;;;12.88;11.77;;;36.60;49.40;;;;;;6351892;28;20674;-64
2021/08/15 10:16:50;;;;;;;14.30;12.90;;;36.80;48.90;;;;;;6332205;28;20241;-64
2021/08/15 10:19:58;;;;;;;13.57;12.57;;;36.90;49.50;;;;;;6301975;28;20226;-65
2021/08/15 10:23:08;;;;;;;14.23;13.07;;;36.80;49.60;;;;;;6300980;28;20227;-63
2021/08/15 10:26:41;;;;;;;14.20;13.00;;;36.70;50.80;;;;;;6301951;28;20228;-63
2021/08/15 10:29:44;;;;;;;12.77;11.88;;;36.80;50.40;;;;;;6305344;28;20230;-64
2021/08/15 10:33:17;;;;;;;14.50;13.27;;;36.90;50.10;;;;;;6351704;28;20241;-65
2021/08/15 10:36:31;;;;;;;14.10;13.05;;;37.10;49.70;;;;;;6326864;28;20222;-65
2021/08/15 10:39:37;;;;;;;14.82;13.70;;;36.90;50.00;;;;;;6326552;28;20253;-64
2021/08/15 10:42:47;;;;;;;13.45;12.38;;;36.90;50.00;;;;;;6327138;28;20240;-65
2021/08/15 10:46:08;;;;;;;14.38;13.02;;;36.80;49.80;;;;;;6326360;28;20241;-65
2021/08/15 10:49:12;;;;;;;14.35;13.20;;;36.80;51.30;;;;;;6322096;28;20563;-65
2021/08/15 10:52:31;;;;;;;14.18;13.07;;;36.80;51.60;;;;;;6310603;28;20245;-65
2021/08/15 10:55:42;;;;;;;14.45;13.38;;;36.50;51.10;;;;;;6301794;28;20260;-65
2021/08/15 10:58:48;;;;;;;13.40;12.40;;;36.10;52.10;;;;;;6300702;28;20329;-63
2021/08/15 11:01:51;;;;;;;13.00;12.00;;;36.00;52.60;;;;;;6305726;28;20221;-65
2021/08/15 11:04:56;;;;;;;15.20;13.80;;;36.30;52.80;;;;;;6347882;28;20229;-63
2021/08/15 11:07:59;;;;;;;14.10;13.20;;;36.50;52.50;;;;;;6351384;28;20562;-64
2021/08/15 11:11:07;;;;;;;15.50;14.18;;;36.80;52.40;;;;;;6351044;27;20565;-64
2021/08/15 11:14:30;;;;;;;14.68;13.68;;;36.90;51.60;;;;;;6350878;28;20224;-63
2021/08/15 11:17:34;;;;;;;14.60;13.40;;;36.40;53.20;;;;;;6346192;28;20708;-63
2021/08/15 11:20:43;;;;;;;15.48;14.23;;;36.20;53.70;;;;;;6300384;28;20573;-62
2021/08/15 11:23:47;;;;;;;14.75;13.70;;;36.20;53.80;;;;;;6308997;28;20225;-64
2021/08/15 11:26:50;;;;;;;14.15;12.93;;;36.40;53.60;;;;;;6306664;28;20233;-64
2021/08/15 11:29:55;;;;;;;13.68;12.60;;;36.50;53.70;;;;;;6300178;28;20616;-64
2021/08/15 11:33:00;;;;;;;14.30;13.20;;;36.60;53.20;;;;;;6300069;28;20226;-63
2021/08/15 11:36:13;;;;;;;15.02;13.93;;;36.70;53.30;;;;;;6299904;28;20721;-62
2021/08/15 11:39:16;;;;;;;13.45;12.45;;;36.80;53.20;;;;;;6319570;28;20214;-61
2021/08/15 11:42:22;;;;;;;13.15;12.23;;;36.80;53.20;;;;;;6349452;28;20228;-63
2021/08/15 11:45:31;;;;;;;13.30;12.35;;;36.80;53.00;;;;;;6313877;28;20226;-63
2021/08/15 11:48:34;;;;;;;13.43;12.45;;;36.70;53.20;;;;;;6313664;28;20226;-63
2021/08/15 11:51:37;;;;;;;13.80;12.65;;;36.70;53.80;;;;;;6322454;28;20241;-63
2021/08/15 11:54:41;;;;;;;14.15;12.85;;;36.50;52.70;;;;;;6322867;28;20229;-63
2021/08/15 11:57:46;;;;;;;12.00;11.20;;;36.30;52.70;;;;;;6331856;28;20245;-63
2021/08/15 12:00:51;;;;;;;14.13;12.63;;;35.70;54.20;;;;;;6339883;28;20256;-63
2021/08/15 12:03:58;;;;;;;13.70;12.70;;;35.70;53.90;;;;;;6324525;28;20225;-63
2021/08/15 12:07:03;;;;;;;14.55;13.35;;;35.60;53.70;;;;;;6324390;28;20230;-64
2021/08/15 12:10:29;;;;;;;14.60;13.43;;;35.20;54.40;;;;;;6324561;28;20230;-64
2021/08/15 12:13:33;;;;;;;14.30;13.20;;;35.10;54.90;;;;;;6324942;28;20572;-62
2021/08/15 12:16:40;;;;;;;14.02;12.93;;;35.10;54.40;;;;;;6324618;28;20240;-62
2021/08/15 12:19:45;;;;;;;14.27;13.27;;;34.90;55.20;;;;;;6319516;28;20316;-64
2021/08/15 12:22:48;;;;;;;13.57;12.45;;;34.60;55.60;;;;;;6324430;28;20238;-62
2021/08/15 12:26:03;;;;;;;14.18;12.93;;;34.60;55.60;;;;;;6313298;28;20226;-63
2021/08/15 12:29:08;;;;;;;12.85;11.85;;;34.50;55.90;;;;;;6310646;28;20240;-61
2021/08/15 12:32:15;;;;;;;14.57;13.27;;;34.50;56.40;;;;;;6343728;28;20233;-60
2021/08/15 12:35:25;;;;;;;13.15;11.93;;;34.50;56.80;;;;;;6348856;28;20224;-60
2021/08/15 12:38:29;;;;;;;14.15;12.98;;;34.10;57.70;;;;;;6348978;28;20705;-60
2021/08/15 12:41:54;;;;;;;14.13;13.10;;;34.00;58.00;;;;;;6349574;28;20228;-60
2021/08/15 12:44:59;;;;;;;14.80;13.45;;;34.00;59.70;;;;;;6329938;28;20690;-60
2021/08/15 12:48:05;;;;;;;13.27;12.32;;;34.10;59.20;;;;;;6323528;28;20237;-60
2021/08/15 12:51:08;;;;;;;14.13;12.77;;;34.10;59.30;;;;;;6326273;28;20190;-62
2021/08/15 12:54:12;;;;;;;13.57;12.57;;;34.10;59.20;;;;;;6328318;28;20560;-62
2021/08/15 12:57:15;;;;;;;14.15;12.60;;;34.10;58.30;;;;;;6323011;28;20241;-62
2021/08/15 13:00:19;;;;;;;14.00;13.00;;;34.00;58.20;;;;;;6332312;28;20205;-65
2021/08/15 13:03:24;;;;;;;15.07;13.77;;;34.10;59.50;;;;;;6332162;28;20713;-64
2021/08/15 13:06:28;;;;;;;14.70;13.45;;;34.00;60.00;;;;;;6331963;28;20220;-63
2021/08/15 13:09:31;;;;;;;14.63;13.48;;;33.90;60.20;;;;;;6332599;28;20221;-63
2021/08/15 13:12:35;;;;;;;14.25;13.15;;;33.70;60.40;;;;;;6331633;28;20237;-64
2021/08/15 13:15:38;;;;;;;14.35;13.18;;;33.60;61.40;;;;;;6328253;28;20312;-64
2021/08/15 13:18:43;;;;;;;14.98;13.57;;;33.40;62.60;;;;;;6329018;28;20542;-64
2021/08/15 13:21:47;;;;;;;14.90;13.60;;;33.20;63.50;;;;;;6332549;28;20225;-64
2021/08/15 13:24:50;;;;;;;15.95;14.43;;;33.10;64.30;;;;;;6329451;28;20221;-65
2021/08/15 13:27:53;;;;;;;16.25;14.77;;;33.00;65.80;;;;;;6330399;28;20240;-65
2021/08/15 13:30:58;;;;;;;17.42;15.90;;;32.90;67.70;;;;;;6331238;28;20237;-65
2021/08/15 13:34:02;;;;;;;18.63;16.95;;;32.70;69.30;;;;;;6331806;28;20240;-64
2021/08/15 13:37:06;;;;;;;19.00;17.20;;;32.50;70.70;;;;;;6331256;28;20229;-64
2021/08/15 13:40:10;;;;;;;19.58;17.65;;;32.30;71.90;;;;;;6331791;28;20230;-66
2021/08/15 13:43:13;;;;;;;19.35;17.33;;;32.20;73.20;;;;;;6331722;28;20240;-66
2021/08/15 13:46:17;;;;;;;20.67;18.70;;;32.00;74.10;;;;;;6334536;28;20229;-66
2021/08/15 13:49:21;;;;;;;17.10;15.68;;;31.80;75.20;;;;;;6335326;27;20692;-66
2021/08/15 13:52:25;;;;;;;18.80;16.88;;;31.70;76.40;;;;;;6335406;27;20226;-63
2021/08/15 13:55:28;;;;;;;19.15;17.55;;;31.60;77.40;;;;;;6330676;28;20229;-63
2021/08/15 13:58:32;;;;;;;19.17;17.48;;;31.50;78.70;;;;;;6331047;28;20312;-64
2021/08/15 14:01:35;;;;;;;18.17;16.42;;;31.40;80.00;;;;;;6325771;28;20667;-64
2021/08/15 14:04:41;;;;;;;18.42;16.83;;;31.30;81.30;;;;;;6342763;27;20278;-64
2021/08/15 14:07:45;;;;;;;20.70;18.85;;;31.30;82.50;;;;;;6334373;28;20233;-66
2021/08/15 14:10:48;;;;;;;19.15;17.45;;;31.20;83.20;;;;;;6327201;28;20313;-64
2021/08/15 14:13:52;;;;;;;18.95;17.27;;;31.20;84.30;;;;;;6327454;28;20229;-63
2021/08/15 14:16:56;;;;;;;18.95;17.27;;;31.10;84.80;;;;;;6325562;28;20226;-63
2021/08/15 14:20:02;;;;;;;20.13;18.55;;;31.00;86.20;;;;;;6326983;28;20225;-64
2021/08/15 14:23:06;;;;;;;20.40;18.33;;;30.90;88.20;;;;;;6326465;28;20229;-63
2021/08/15 14:26:09;;;;;;;20.13;18.40;;;30.70;88.80;;;;;;6313268;28;20240;-66
2021/08/15 14:29:12;;;;;;;19.73;17.87;;;30.50;90.10;;;;;;6332316;27;20223;-67
2021/08/15 14:32:15;;;;;;;18.57;17.03;;;30.30;91.00;;;;;;6337884;28;20565;-65
2021/08/15 14:35:20;;;;;;;19.93;17.67;;;30.20;91.50;;;;;;6330739;28;20221;-65
2021/08/15 14:38:23;;;;;;;18.50;16.90;;;30.20;91.60;;;;;;6326064;28;20557;-65
2021/08/15 14:41:27;;;;;;;19.20;17.50;;;30.20;91.60;;;;;;6326709;28;20240;-65
2021/08/15 14:44:30;;;;;;;17.47;15.90;;;30.20;91.80;;;;;;6326009;28;20667;-66
2021/08/15 14:47:33;;;;;;;17.97;16.37;;;30.10;92.10;;;;;;6326689;28;20241;-64
2021/08/15 14:50:38;;;;;;;18.73;16.80;;;30.00;92.60;;;;;;6326374;28;20229;-66
2021/08/15 14:53:41;;;;;;;18.90;17.20;;;29.90;92.90;;;;;;6330913;28;20236;-65
2021/08/15 14:56:44;;;;;;;17.57;16.00;;;29.60;93.70;;;;;;6325438;28;20780;-65
2021/08/15 14:59:47;;;;;;;19.93;18.03;;;29.30;95.00;;;;;;6326651;28;20248;-65
2021/08/15 15:02:51;;;;;;;17.23;15.73;;;29.20;96.00;;;;;;6325901;28;20233;-65
2021/08/15 15:05:55;;;;;;;18.60;16.87;;;29.10;96.40;;;;;;6326200;28;20233;-64
2021/08/15 15:08:58;;;;;;;19.67;18.00;;;29.10;97.20;;;;;;6324388;28;20675;-64
2021/08/15 15:12:02;;;;;;;19.70;17.63;;;28.90;99.20;;;;;;6325707;28;20311;-64
2021/08/15 15:15:07;;;;;;;19.83;17.90;;;28.80;99.90;;;;;;6326232;28;20201;-65
2021/08/15 15:18:10;;;;;;;19.27;17.53;;;28.50;99.90;;;;;;6324082;28;20323;-64
2021/08/15 15:21:14;;;;;;;19.47;17.60;;;28.40;99.90;;;;;;6325619;28;20213;-64
2021/08/15 15:24:17;;;;;;;19.93;18.10;;;28.40;99.90;;;;;;6325799;28;20201;-64
2021/08/15 15:27:21;;;;;;;18.67;16.30;;;28.20;99.90;;;;;;6302202;28;20266;-64
2021/08/15 15:30:24;;;;;;;16.90;15.40;;;27.90;99.90;;;;;;6300685;28;20226;-64
2021/08/15 15:33:28;;;;;;;16.57;14.77;;;27.70;99.90;;;;;;6306799;28;20231;-64
2021/08/15 15:36:32;;;;;;;17.13;15.30;;;27.70;99.90;;;;;;6342523;28;20236;-65
2021/08/15 15:39:36;;;;;;;18.57;16.60;;;27.60;99.90;;;;;;6348410;28;20231;-65